createdAt,value
2022-10-09T00:02:12.043Z,100.00
2022-10-09T00:05:03.188Z,100.00
2022-10-09T00:07:30.018Z,100.00
2022-10-09T00:09:58.967Z,100.00
2022-10-09T00:12:28.812Z,100.00
2022-10-09T00:14:58.785Z,100.00
2022-10-09T00:17:25.648Z,100.00
2022-10-09T00:19:58.422Z,100.00
2022-10-09T00:22:31.358Z,100.00
2022-10-09T00:25:04.254Z,100.00
2022-10-09T00:27:31.150Z,100.00
2022-10-09T00:30:22.434Z,100.00
2022-10-09T00:32:49.599Z,100.00
2022-10-09T00:35:18.588Z,100.00
2022-10-09T00:37:45.475Z,100.00
2022-10-09T00:40:13.366Z,99.49
2022-10-09T00:42:50.711Z,98.51
2022-10-09T00:45:20.335Z,97.83
2022-10-09T00:47:49.532Z,96.95
2022-10-09T00:50:35.004Z,96.85
2022-10-09T00:53:12.795Z,96.65
2022-10-09T00:55:42.538Z,96.36
2022-10-09T00:58:09.774Z,95.98
2022-10-09T01:01:01.906Z,95.93
2022-10-09T01:03:28.634Z,95.81
2022-10-09T01:06:05.309Z,95.67
2022-10-09T01:08:33.324Z,95.77
2022-10-09T01:11:13.891Z,96.38
2022-10-09T01:14:04.797Z,96.04
2022-10-09T01:16:45.059Z,95.88
2022-10-09T01:19:31.318Z,96.34
2022-10-09T01:21:58.132Z,96.38
2022-10-09T01:24:37.226Z,96.53
2022-10-09T01:27:03.949Z,96.68
2022-10-09T01:29:51.099Z,97.23
2022-10-09T01:32:21.382Z,97.10
2022-10-09T01:34:49.428Z,97.37
2022-10-09T01:37:18.971Z,96.85
2022-10-09T01:39:46.864Z,96.77
2022-10-09T01:42:16.830Z,97.31
2022-10-09T01:44:44.852Z,97.49
2022-10-09T01:47:16.399Z,97.82
2022-10-09T01:49:50.450Z,98.47
2022-10-09T01:52:26.366Z,99.72
2022-10-09T01:55:01.240Z,100.00
2022-10-09T01:57:31.012Z,100.00
2022-10-09T01:59:59.792Z,100.00
2022-10-09T02:02:34.413Z,100.00
2022-10-09T02:05:04.462Z,100.00
2022-10-09T02:07:37.747Z,100.00
2022-10-09T02:10:06.267Z,100.00
2022-10-09T02:12:37.652Z,100.00
2022-10-09T02:15:04.947Z,100.00
2022-10-09T02:17:35.128Z,100.00
2022-10-09T02:20:06.249Z,100.00
2022-10-09T02:22:33.720Z,100.00
2022-10-09T02:25:02.910Z,100.00
2022-10-09T02:27:30.964Z,100.00
2022-10-09T02:29:59.982Z,100.00
2022-10-09T02:32:28.532Z,100.00
2022-10-09T02:34:55.387Z,100.00
2022-10-09T02:37:22.207Z,100.00
2022-10-09T02:39:50.502Z,100.00
2022-10-09T02:42:23.456Z,100.00
2022-10-09T02:45:05.512Z,100.00
2022-10-09T02:47:32.326Z,100.00
2022-10-09T02:49:59.177Z,100.00
2022-10-09T02:52:40.023Z,100.00
2022-10-09T02:55:09.028Z,100.00
2022-10-09T02:57:36.875Z,100.00
2022-10-09T03:00:04.794Z,100.00
2022-10-09T03:02:31.797Z,100.00
2022-10-09T03:04:59.691Z,100.00
2022-10-09T03:07:29.613Z,100.00
2022-10-09T03:10:02.573Z,100.00
2022-10-09T03:12:32.447Z,100.00
2022-10-09T03:15:05.797Z,100.00
2022-10-09T03:17:39.047Z,100.00
2022-10-09T03:20:18.819Z,100.00
2022-10-09T03:22:53.899Z,100.00
2022-10-09T03:25:21.101Z,100.00
2022-10-09T03:28:00.891Z,100.00
2022-10-09T03:30:27.696Z,100.00
2022-10-09T03:32:59.617Z,100.00
2022-10-09T03:35:32.468Z,100.00
2022-10-09T03:38:09.387Z,100.00
2022-10-09T03:40:36.314Z,100.00
2022-10-09T03:43:04.145Z,100.00
2022-10-09T03:45:31.003Z,100.00
2022-10-09T03:47:57.847Z,100.00
2022-10-09T03:50:28.705Z,100.00
2022-10-09T03:52:59.641Z,100.00
2022-10-09T03:55:30.455Z,100.00
2022-10-09T03:58:05.706Z,100.00
2022-10-09T04:00:46.889Z,100.00
2022-10-09T04:03:22.436Z,100.00
2022-10-09T04:05:52.511Z,100.00
2022-10-09T04:08:19.378Z,100.00
2022-10-09T04:11:05.959Z,100.00
2022-10-09T04:13:46.028Z,100.00
2022-10-09T04:16:14.962Z,100.00
2022-10-09T04:18:57.024Z,100.00
2022-10-09T04:21:25.743Z,100.00
2022-10-09T04:24:00.348Z,100.00
2022-10-09T04:26:33.188Z,100.00
2022-10-09T04:29:01.978Z,100.00
2022-10-09T04:31:30.826Z,100.00
2022-10-09T04:34:27.416Z,100.00
2022-10-09T04:37:14.321Z,100.00
2022-10-09T04:39:48.340Z,100.00
2022-10-09T04:42:18.224Z,100.00
2022-10-09T04:44:48.053Z,100.00
2022-10-09T04:47:21.957Z,100.00
2022-10-09T04:49:51.095Z,100.00
2022-10-09T04:52:18.982Z,100.00
2022-10-09T04:54:56.036Z,100.00
2022-10-09T04:57:25.014Z,100.00
2022-10-09T05:00:01.129Z,100.00
2022-10-09T05:02:28.006Z,100.00
2022-10-09T05:05:19.738Z,100.00
2022-10-09T05:07:46.629Z,100.00
2022-10-09T05:10:23.332Z,100.00
2022-10-09T05:12:50.574Z,100.00
2022-10-09T05:15:43.066Z,100.00
2022-10-09T05:18:10.007Z,100.00
2022-10-09T05:20:41.336Z,100.00
2022-10-09T05:23:13.251Z,100.00
2022-10-09T05:25:40.025Z,100.00
2022-10-09T05:28:22.419Z,100.00
2022-10-09T05:30:49.558Z,100.00
2022-10-09T05:33:29.589Z,100.00
2022-10-09T05:35:59.679Z,100.00
2022-10-09T05:38:37.839Z,100.00
2022-10-09T05:41:08.585Z,100.00
2022-10-09T05:43:36.764Z,100.00
2022-10-09T05:46:07.885Z,100.00
2022-10-09T05:48:35.061Z,100.00
2022-10-09T05:51:10.702Z,100.00
2022-10-09T05:53:44.755Z,100.00
2022-10-09T05:56:11.525Z,100.00
2022-10-09T05:58:38.504Z,100.00
2022-10-09T06:01:06.357Z,100.00
2022-10-09T06:03:34.298Z,100.00
2022-10-09T06:06:02.296Z,100.00
2022-10-09T06:08:31.953Z,100.00
2022-10-09T06:10:58.864Z,100.00
2022-10-09T06:13:34.830Z,100.00
2022-10-09T06:16:01.743Z,100.00
2022-10-09T06:18:28.505Z,100.00
2022-10-09T06:21:02.317Z,100.00
2022-10-09T06:23:31.970Z,100.00
2022-10-09T06:26:07.238Z,100.00
2022-10-09T06:28:35.530Z,100.00
2022-10-09T06:31:24.306Z,100.00
2022-10-09T06:33:52.866Z,100.00
2022-10-09T06:36:21.060Z,100.00
2022-10-09T06:38:49.285Z,100.00
2022-10-09T06:41:18.705Z,100.00
2022-10-09T06:43:50.783Z,100.00
2022-10-09T06:46:18.369Z,100.00
2022-10-09T06:48:45.236Z,100.00
2022-10-09T06:51:13.667Z,100.00
2022-10-09T06:53:43.027Z,100.00
2022-10-09T06:56:12.871Z,100.00
2022-10-09T06:58:42.128Z,99.62
2022-10-09T07:01:10.984Z,97.58
2022-10-09T07:03:40.736Z,96.56
2022-10-09T07:06:07.502Z,96.18
2022-10-09T07:08:34.706Z,95.94
2022-10-09T07:11:13.554Z,94.94
2022-10-09T07:13:41.470Z,94.34
2022-10-09T07:16:08.773Z,94.36
2022-10-09T07:18:36.070Z,93.55
2022-10-09T07:21:05.328Z,92.20
2022-10-09T07:23:32.584Z,92.13
2022-10-09T07:26:00.042Z,91.24
2022-10-09T07:28:29.398Z,90.14
2022-10-09T07:30:56.837Z,90.42
2022-10-09T07:33:23.735Z,90.59
2022-10-09T07:35:55.516Z,89.75
2022-10-09T07:38:23.026Z,89.21
2022-10-09T07:40:51.748Z,88.43
2022-10-09T07:43:18.956Z,89.14
2022-10-09T07:45:47.143Z,87.89
2022-10-09T07:48:15.089Z,86.60
2022-10-09T07:50:41.994Z,87.16
2022-10-09T07:53:10.194Z,87.28
2022-10-09T07:55:44.865Z,85.43
2022-10-09T07:58:13.315Z,85.74
2022-10-09T08:00:41.087Z,85.57
2022-10-09T08:03:08.538Z,86.42
2022-10-09T08:05:39.642Z,86.02
2022-10-09T08:08:06.553Z,86.46
2022-10-09T08:10:33.626Z,84.57
2022-10-09T08:13:01.592Z,85.42
2022-10-09T08:15:29.526Z,84.86
2022-10-09T08:17:56.400Z,84.41
2022-10-09T08:23:16.554Z,81.16
2022-10-09T08:25:51.756Z,81.08
2022-10-09T08:28:22.203Z,81.04
2022-10-09T08:30:50.485Z,80.74
2022-10-09T08:33:22.141Z,80.78
2022-10-09T08:35:55.324Z,80.23
2022-10-09T08:38:46.017Z,79.23
2022-10-09T08:41:21.834Z,79.83
2022-10-09T08:44:00.667Z,78.24
2022-10-09T08:46:59.838Z,77.14
2022-10-09T08:49:33.175Z,76.22
2022-10-09T08:52:21.983Z,77.98
2022-10-09T08:54:50.262Z,78.18
2022-10-09T08:57:18.327Z,75.52
2022-10-09T08:59:49.477Z,73.27
2022-10-09T09:02:59.799Z,70.22
2022-10-09T09:05:51.102Z,63.91
2022-10-09T09:09:03.037Z,61.72
2022-10-09T09:11:53.917Z,62.09
2022-10-09T09:14:45.737Z,61.78
2022-10-09T09:17:30.348Z,61.16
2022-10-09T09:20:05.663Z,64.41
2022-10-09T09:22:34.603Z,64.95
2022-10-09T09:25:28.771Z,60.14
2022-10-09T09:28:12.509Z,58.95
2022-10-09T09:30:55.689Z,61.67
2022-10-09T09:33:44.872Z,61.15
2022-10-09T09:36:22.900Z,59.39
2022-10-09T09:39:36.271Z,55.06
2022-10-09T09:41:46.164Z,56.90
2022-10-09T09:44:16.727Z,57.36
2022-10-09T09:46:59.986Z,58.42
2022-10-09T09:49:33.936Z,59.01
2022-10-09T09:52:26.478Z,60.05
2022-10-09T09:54:56.191Z,56.68
2022-10-09T09:57:32.262Z,53.67
2022-10-09T10:00:32.233Z,52.64
2022-10-09T10:03:21.621Z,53.58
2022-10-09T10:05:50.090Z,55.18
2022-10-09T10:08:27.115Z,56.21
2022-10-09T10:11:00.245Z,55.97
2022-10-09T10:13:35.429Z,56.44
2022-10-09T10:16:04.536Z,54.92
2022-10-09T10:18:43.578Z,49.94
2022-10-09T10:21:17.042Z,47.29
2022-10-09T10:23:58.801Z,50.61
2022-10-09T10:26:36.989Z,52.82
2022-10-09T10:29:21.177Z,49.35
2022-10-09T10:31:49.026Z,47.74
2022-10-09T10:34:58.255Z,47.60
2022-10-09T10:37:46.004Z,44.93
2022-10-09T10:40:23.348Z,43.76
2022-10-09T10:43:08.188Z,42.10
2022-10-09T10:46:09.016Z,41.84
2022-10-09T10:48:47.467Z,41.66
2022-10-09T10:51:44.564Z,40.59
2022-10-09T10:54:23.354Z,39.23
2022-10-09T10:57:29.271Z,36.54
2022-10-09T11:00:07.948Z,37.56
2022-10-09T11:02:56.813Z,34.42
2022-10-09T11:05:59.158Z,36.52
2022-10-09T11:08:42.056Z,37.79
2022-10-09T11:11:24.010Z,38.49
2022-10-09T11:14:20.059Z,39.10
2022-10-09T11:17:19.424Z,39.80
2022-10-09T11:20:01.334Z,40.93
2022-10-09T11:22:31.491Z,41.57
2022-10-09T11:25:16.987Z,42.51
2022-10-09T11:27:56.824Z,43.28
2022-10-09T11:30:26.859Z,42.64
2022-10-09T11:33:03.700Z,43.04
2022-10-09T11:36:03.949Z,40.42
2022-10-09T11:38:42.856Z,39.84
2022-10-09T11:41:10.377Z,39.67
2022-10-09T11:44:14.931Z,39.04
2022-10-09T11:47:01.560Z,39.48
2022-10-09T11:49:46.802Z,39.63
2022-10-09T11:53:02.518Z,41.00
2022-10-09T11:55:31.677Z,38.61
2022-10-09T11:58:31.247Z,37.21
2022-10-09T12:01:12.820Z,34.85
2022-10-09T12:03:41.246Z,34.89
2022-10-09T12:06:15.182Z,34.62
2022-10-09T12:08:56.194Z,33.80
2022-10-09T12:11:30.853Z,33.51
2022-10-09T12:14:04.637Z,32.05
2022-10-09T12:16:44.829Z,32.45
2022-10-09T12:19:25.154Z,30.38
2022-10-09T12:22:30.946Z,31.77
2022-10-09T12:25:02.911Z,31.10
2022-10-09T12:27:40.657Z,30.96
2022-10-09T12:30:11.933Z,31.36
2022-10-09T12:33:27.957Z,32.29
2022-10-09T12:36:24.782Z,33.05
2022-10-09T12:38:53.183Z,32.67
2022-10-09T12:41:23.417Z,34.30
2022-10-09T12:43:53.155Z,33.67
2022-10-09T12:46:39.311Z,34.34
2022-10-09T12:49:21.273Z,34.22
2022-10-09T12:51:56.223Z,32.97
2022-10-09T12:54:32.012Z,31.84
2022-10-09T12:57:01.817Z,31.91
2022-10-09T12:59:30.358Z,31.69
2022-10-09T13:02:00.709Z,32.10
2022-10-09T13:04:59.354Z,31.36
2022-10-09T13:07:29.792Z,30.92
2022-10-09T13:10:04.497Z,29.66
2022-10-09T13:12:38.366Z,29.25
2022-10-09T13:15:27.777Z,28.33
2022-10-09T13:18:13.436Z,28.18
2022-10-09T13:20:42.512Z,28.96
2022-10-09T13:23:28.072Z,29.79
2022-10-09T13:26:05.228Z,30.37
2022-10-09T13:28:34.428Z,31.62
2022-10-09T13:31:20.145Z,31.10
2022-10-09T13:33:54.346Z,31.62
2022-10-09T13:36:30.192Z,31.97
2022-10-09T13:39:06.344Z,32.52
2022-10-09T13:41:34.206Z,32.15
2022-10-09T13:44:02.257Z,31.95
2022-10-09T13:46:38.816Z,30.89
2022-10-09T13:49:08.992Z,31.07
2022-10-09T13:51:38.003Z,30.08
2022-10-09T13:54:05.095Z,30.13
2022-10-09T13:56:32.653Z,30.10
2022-10-09T13:59:14.616Z,29.74
2022-10-09T14:01:41.879Z,29.15
2022-10-09T14:04:28.082Z,28.82
2022-10-09T14:07:01.143Z,28.23
2022-10-09T14:09:29.244Z,28.38
2022-10-09T14:12:02.496Z,28.40
2022-10-09T14:14:31.143Z,28.01
2022-10-09T14:17:02.458Z,27.73
2022-10-09T14:19:30.306Z,27.61
2022-10-09T14:21:58.219Z,27.49
2022-10-09T14:24:27.162Z,27.74
2022-10-09T14:26:55.430Z,26.54
2022-10-09T14:29:22.700Z,26.91
2022-10-09T14:31:52.155Z,27.63
2022-10-09T14:34:20.457Z,26.63
2022-10-09T14:36:49.401Z,26.79
2022-10-09T14:39:22.822Z,27.42
2022-10-09T14:42:02.325Z,27.80
2022-10-09T14:44:31.618Z,27.85
2022-10-09T14:47:00.913Z,28.57
2022-10-09T14:49:30.500Z,28.04
2022-10-09T14:51:57.518Z,27.75
2022-10-09T14:54:24.661Z,27.21
2022-10-09T14:56:53.944Z,27.71
2022-10-09T14:59:22.485Z,28.57
2022-10-09T15:01:50.137Z,29.17
2022-10-09T15:04:17.431Z,29.13
2022-10-09T15:06:50.912Z,29.48
2022-10-09T15:09:22.056Z,29.73
2022-10-09T15:11:51.567Z,30.20
2022-10-09T15:14:21.946Z,30.00
2022-10-09T15:16:50.112Z,30.91
2022-10-09T15:19:24.445Z,30.84
2022-10-09T15:21:51.596Z,31.00
2022-10-09T15:24:18.798Z,31.51
2022-10-09T15:26:50.137Z,30.90
2022-10-09T15:29:20.569Z,31.43
2022-10-09T15:31:50.976Z,32.83
2022-10-09T15:34:21.322Z,32.63
2022-10-09T15:36:51.401Z,33.35
2022-10-09T15:39:19.982Z,34.57
2022-10-09T15:41:48.630Z,36.20
2022-10-09T15:44:26.816Z,37.10
2022-10-09T15:46:54.485Z,37.29
2022-10-09T15:49:24.214Z,39.13
2022-10-09T15:51:58.120Z,39.47
2022-10-09T15:54:25.359Z,41.34
2022-10-09T15:57:01.522Z,44.86
2022-10-09T15:59:31.923Z,46.55
2022-10-09T16:02:04.190Z,48.24
2022-10-09T16:04:40.091Z,49.38
2022-10-09T16:07:14.603Z,51.27
2022-10-09T16:09:45.068Z,53.14
2022-10-09T16:12:13.283Z,55.07
2022-10-09T16:15:08.293Z,57.09
2022-10-09T16:17:42.478Z,60.04
2022-10-09T16:20:18.680Z,60.44
2022-10-09T16:22:45.723Z,61.99
2022-10-09T16:25:20.034Z,62.40
2022-10-09T16:27:51.644Z,63.04
2022-10-09T16:30:21.153Z,63.67
2022-10-09T16:32:50.865Z,64.64
2022-10-09T16:35:29.523Z,66.23
2022-10-09T16:37:59.979Z,66.46
2022-10-09T16:41:01.870Z,67.19
2022-10-09T16:43:32.793Z,68.36
2022-10-09T16:46:18.474Z,69.36
2022-10-09T16:48:46.282Z,69.57
2022-10-09T16:51:21.401Z,70.32
2022-10-09T16:53:57.733Z,71.90
2022-10-09T16:56:33.410Z,73.36
2022-10-09T16:59:04.167Z,74.01
2022-10-09T17:01:33.558Z,73.99
2022-10-09T17:04:10.198Z,74.06
2022-10-09T17:06:37.924Z,74.34
2022-10-09T17:09:13.712Z,74.28
2022-10-09T17:11:50.309Z,74.63
2022-10-09T17:14:19.553Z,74.89
2022-10-09T17:16:46.623Z,75.49
2022-10-09T17:19:16.393Z,75.29
2022-10-09T17:21:43.927Z,74.85
2022-10-09T17:24:15.339Z,74.32
2022-10-09T17:26:43.975Z,75.11
2022-10-09T17:29:14.959Z,75.22
2022-10-09T17:31:42.453Z,75.11
2022-10-09T17:34:17.380Z,75.52
2022-10-09T17:36:45.612Z,76.04
2022-10-09T17:39:18.194Z,76.83
2022-10-09T17:41:49.785Z,77.61
2022-10-09T17:44:18.550Z,78.25
2022-10-09T17:46:46.773Z,79.40
2022-10-09T17:49:17.118Z,79.99
2022-10-09T17:51:47.159Z,80.03
2022-10-09T17:54:17.700Z,79.72
2022-10-09T17:56:46.048Z,79.17
2022-10-09T17:59:16.781Z,79.75
2022-10-09T18:01:45.139Z,79.91
2022-10-09T18:04:22.922Z,80.46
2022-10-09T18:06:52.218Z,79.31
2022-10-09T18:09:20.460Z,79.48
2022-10-09T18:11:55.817Z,79.92
2022-10-09T18:14:27.160Z,81.49
2022-10-09T18:16:55.252Z,82.35
2022-10-09T18:19:23.820Z,82.32
2022-10-09T18:22:08.443Z,80.36
2022-10-09T18:24:39.136Z,79.81
2022-10-09T18:27:07.469Z,80.09
2022-10-09T18:29:35.247Z,80.89
2022-10-09T18:32:02.376Z,81.46
2022-10-09T18:34:36.875Z,82.82
2022-10-09T18:37:06.263Z,82.89
2022-10-09T18:39:33.518Z,82.61
2022-10-09T18:42:04.734Z,82.24
2022-10-09T18:44:35.781Z,82.62
2022-10-09T18:47:05.738Z,83.71
2022-10-09T18:49:44.670Z,84.70
2022-10-09T18:52:13.251Z,85.08
2022-10-09T18:54:50.299Z,85.63
2022-10-09T18:57:17.894Z,86.21
2022-10-09T18:59:48.613Z,86.62
2022-10-09T19:02:17.521Z,86.88
2022-10-09T19:04:44.815Z,87.59
2022-10-09T19:07:12.382Z,87.79
2022-10-09T19:09:41.629Z,88.12
2022-10-09T19:12:10.025Z,89.27
2022-10-09T19:14:40.580Z,90.14
2022-10-09T19:17:08.816Z,91.22
2022-10-09T19:19:36.715Z,90.34
2022-10-09T19:22:04.391Z,90.15
2022-10-09T19:24:34.172Z,89.92
2022-10-09T19:27:02.942Z,90.64
2022-10-09T19:29:30.037Z,90.55
2022-10-09T19:31:58.154Z,90.84
2022-10-09T19:34:31.256Z,90.25
2022-10-09T19:37:06.185Z,90.31
2022-10-09T19:39:33.414Z,92.02
2022-10-09T19:42:00.427Z,93.40
2022-10-09T19:44:28.115Z,93.75
2022-10-09T19:47:05.549Z,93.52
2022-10-09T19:49:33.971Z,93.47
2022-10-09T19:52:03.915Z,92.93
2022-10-09T19:54:33.708Z,92.35
2022-10-09T19:57:04.035Z,91.28
2022-10-09T19:59:31.536Z,89.97
2022-10-09T20:02:04.688Z,89.22
2022-10-09T20:04:33.459Z,89.16
2022-10-09T20:07:00.766Z,87.94
2022-10-09T20:09:28.784Z,87.61
2022-10-09T20:11:55.842Z,87.93
2022-10-09T20:14:23.988Z,88.18
2022-10-09T20:17:00.994Z,88.48
2022-10-09T20:19:49.744Z,89.41
2022-10-09T20:22:19.643Z,90.45
2022-10-09T20:24:46.657Z,91.28
2022-10-09T20:27:13.967Z,91.44
2022-10-09T20:29:41.115Z,91.33
2022-10-09T20:32:12.426Z,91.90
2022-10-09T20:34:39.388Z,91.19
2022-10-09T20:37:06.522Z,91.79
2022-10-09T20:39:33.603Z,91.33
2022-10-09T20:42:01.602Z,90.25
2022-10-09T20:44:28.707Z,89.45
2022-10-09T20:46:57.074Z,88.76
2022-10-09T20:49:24.114Z,88.10
2022-10-09T20:51:58.903Z,87.23
2022-10-09T20:54:30.683Z,86.77
2022-10-09T20:56:57.787Z,86.67
2022-10-09T20:59:25.937Z,88.39
2022-10-09T21:01:53.259Z,89.51
2022-10-09T21:04:20.317Z,90.25
2022-10-09T21:06:49.456Z,90.18
2022-10-09T21:09:16.587Z,90.33
2022-10-09T21:11:46.479Z,90.78
2022-10-09T21:14:20.640Z,90.03
2022-10-09T21:16:53.486Z,89.65
2022-10-09T21:19:20.472Z,89.45
2022-10-09T21:21:55.566Z,89.79
2022-10-09T21:24:22.682Z,89.29
2022-10-09T21:26:49.781Z,88.92
2022-10-09T21:29:16.828Z,88.85
2022-10-09T21:31:44.967Z,88.89
2022-10-09T21:34:12.014Z,89.21
2022-10-09T21:37:15.968Z,90.78
2022-10-09T21:39:35.100Z,91.23
2022-10-09T21:42:15.146Z,91.38
2022-10-09T21:44:55.353Z,90.91
2022-10-09T21:47:23.802Z,90.49
2022-10-09T21:49:51.950Z,90.98
2022-10-09T21:52:30.279Z,91.11
2022-10-09T21:54:59.138Z,91.17
2022-10-09T21:57:32.282Z,90.78
2022-10-09T22:00:01.376Z,91.01
2022-10-09T22:02:30.390Z,92.35
2022-10-09T22:04:57.640Z,93.47
2022-10-09T22:07:30.845Z,94.39
2022-10-09T22:09:57.832Z,94.16
2022-10-09T22:12:26.963Z,93.00
2022-10-09T22:14:54.036Z,92.27
2022-10-09T22:17:23.312Z,91.87
2022-10-09T22:19:50.959Z,93.24
2022-10-09T22:22:18.132Z,93.79
2022-10-09T22:24:46.171Z,94.40
2022-10-09T22:27:13.194Z,94.09
2022-10-09T22:29:52.563Z,93.88
2022-10-09T22:32:20.694Z,93.90
2022-10-09T22:34:52.285Z,94.12
2022-10-09T22:37:19.696Z,94.07
2022-10-09T22:39:47.789Z,93.41
2022-10-09T22:42:17.188Z,93.18
2022-10-09T22:44:44.107Z,92.76
2022-10-09T22:47:18.009Z,92.71
2022-10-09T22:49:46.058Z,92.41
2022-10-09T22:52:13.150Z,92.19
2022-10-09T22:54:41.178Z,92.11
2022-10-09T22:57:08.218Z,92.02
2022-10-09T22:59:35.214Z,92.26
2022-10-09T23:02:02.353Z,93.59
2022-10-09T23:04:30.369Z,94.01
2022-10-09T23:07:00.889Z,94.10
2022-10-09T23:09:32.096Z,94.04
2022-10-09T23:12:00.647Z,93.95
2022-10-09T23:14:40.984Z,93.82
2022-10-09T23:17:15.974Z,93.74
2022-10-09T23:19:53.228Z,93.30
2022-10-09T23:22:23.415Z,92.64
2022-10-09T23:24:51.400Z,92.20
2022-10-09T23:27:33.457Z,91.98
2022-10-09T23:30:02.550Z,92.28
2022-10-09T23:32:42.725Z,92.50
2022-10-09T23:35:10.860Z,92.95
2022-10-09T23:37:38.950Z,93.51
2022-10-09T23:40:15.237Z,94.26
2022-10-09T23:43:03.713Z,94.89
2022-10-09T23:45:31.750Z,95.47
2022-10-09T23:48:04.663Z,96.00
2022-10-09T23:50:33.657Z,96.28
2022-10-09T23:53:04.599Z,96.06
2022-10-09T23:55:37.812Z,96.00
2022-10-09T23:58:21.852Z,95.58
